sensor_id;sensor_type;location;lat;lon;timestamp;P1;durP1;ratioP1;P2;durP2;ratioP2
70169;SDS011;57543;45.442;9.212;2023-03-23T00:02:26;7.13;;;2.75;;
70169;SDS011;57543;45.442;9.212;2023-03-23T00:05:31;8.40;;;2.80;;
70169;SDS011;57543;45.442;9.212;2023-03-23T00:08:36;6.63;;;2.83;;
70169;SDS011;57543;45.442;9.212;2023-03-23T00:11:47;7.07;;;3.67;;
70169;SDS011;57543;45.442;9.212;2023-03-23T00:14:51;6.22;;;3.40;;
70169;SDS011;57543;45.442;9.212;2023-03-23T00:17:57;7.40;;;3.38;;
70169;SDS011;57543;45.442;9.212;2023-03-23T00:21:06;6.63;;;3.03;;
70169;SDS011;57543;45.442;9.212;2023-03-23T00:24:16;5.57;;;3.10;;
70169;SDS011;57543;45.442;9.212;2023-03-23T00:27:21;7.90;;;4.13;;
70169;SDS011;57543;45.442;9.212;2023-03-23T00:30:26;7.75;;;3.88;;
70169;SDS011;57543;45.442;9.212;2023-03-23T00:33:30;6.13;;;3.70;;
70169;SDS011;57543;45.442;9.212;2023-03-23T00:36:36;7.82;;;3.38;;
70169;SDS011;57543;45.442;9.212;2023-03-23T00:39:46;5.73;;;3.20;;
70169;SDS011;57543;45.442;9.212;2023-03-23T00:42:51;7.00;;;3.58;;
70169;SDS011;57543;45.442;9.212;2023-03-23T00:45:55;7.25;;;3.50;;
70169;SDS011;57543;45.442;9.212;2023-03-23T00:49:00;7.03;;;3.63;;
70169;SDS011;57543;45.442;9.212;2023-03-23T00:52:05;7.20;;;3.40;;
70169;SDS011;57543;45.442;9.212;2023-03-23T00:55:09;7.27;;;3.90;;
70169;SDS011;57543;45.442;9.212;2023-03-23T00:58:13;6.15;;;3.83;;
70169;SDS011;57543;45.442;9.212;2023-03-23T01:01:17;7.70;;;4.18;;
70169;SDS011;57543;45.442;9.212;2023-03-23T01:04:21;6.47;;;3.80;;
70169;SDS011;57543;45.442;9.212;2023-03-23T01:07:24;6.43;;;3.70;;
70169;SDS011;57543;45.442;9.212;2023-03-23T01:10:31;8.23;;;4.13;;
70169;SDS011;57543;45.442;9.212;2023-03-23T01:13:36;6.78;;;3.60;;
70169;SDS011;57543;45.442;9.212;2023-03-23T01:16:40;6.00;;;3.40;;
70169;SDS011;57543;45.442;9.212;2023-03-23T01:19:43;6.97;;;3.60;;
70169;SDS011;57543;45.442;9.212;2023-03-23T01:22:47;6.60;;;3.83;;
70169;SDS011;57543;45.442;9.212;2023-03-23T01:25:51;7.40;;;3.50;;
70169;SDS011;57543;45.442;9.212;2023-03-23T01:28:57;7.55;;;3.42;;
70169;SDS011;57543;45.442;9.212;2023-03-23T01:32:01;6.85;;;3.40;;
70169;SDS011;57543;45.442;9.212;2023-03-23T01:35:06;6.05;;;3.50;;
70169;SDS011;57543;45.442;9.212;2023-03-23T01:38:09;6.32;;;3.35;;
70169;SDS011;57543;45.442;9.212;2023-03-23T01:41:14;6.90;;;3.97;;
70169;SDS011;57543;45.442;9.212;2023-03-23T01:47:47;5.45;;;3.38;;
70169;SDS011;57543;45.442;9.212;2023-03-23T01:54:12;7.47;;;3.60;;
70169;SDS011;57543;45.442;9.212;2023-03-23T01:57:23;6.53;;;3.33;;
70169;SDS011;57543;45.442;9.212;2023-03-23T02:00:34;5.03;;;3.20;;
70169;SDS011;57543;45.442;9.212;2023-03-23T02:03:42;6.40;;;3.50;;
70169;SDS011;57543;45.442;9.212;2023-03-23T02:06:48;6.47;;;3.70;;
70169;SDS011;57543;45.442;9.212;2023-03-23T02:09:56;6.00;;;3.53;;
70169;SDS011;57543;45.442;9.212;2023-03-23T02:13:01;6.63;;;3.33;;
70169;SDS011;57543;45.442;9.212;2023-03-23T02:16:10;5.20;;;3.30;;
70169;SDS011;57543;45.442;9.212;2023-03-23T02:29:36;5.80;;;3.70;;
70169;SDS011;57543;45.442;9.212;2023-03-23T02:32:54;5.47;;;3.58;;
70169;SDS011;57543;45.442;9.212;2023-03-23T02:36:34;5.68;;;3.40;;
70169;SDS011;57543;45.442;9.212;2023-03-23T02:39:47;8.88;;;3.63;;
70169;SDS011;57543;45.442;9.212;2023-03-23T02:42:54;7.45;;;4.00;;
70169;SDS011;57543;45.442;9.212;2023-03-23T02:46:00;5.10;;;3.20;;
70169;SDS011;57543;45.442;9.212;2023-03-23T02:49:06;6.18;;;3.55;;
70169;SDS011;57543;45.442;9.212;2023-03-23T02:52:14;7.53;;;3.67;;
70169;SDS011;57543;45.442;9.212;2023-03-23T02:55:23;5.97;;;3.30;;
70169;SDS011;57543;45.442;9.212;2023-03-23T02:58:29;6.65;;;3.80;;
70169;SDS011;57543;45.442;9.212;2023-03-23T03:04:41;7.88;;;4.10;;
70169;SDS011;57543;45.442;9.212;2023-03-23T03:11:24;5.43;;;3.63;;
70169;SDS011;57543;45.442;9.212;2023-03-23T03:14:31;5.75;;;3.60;;
70169;SDS011;57543;45.442;9.212;2023-03-23T03:21:11;5.75;;;3.30;;
70169;SDS011;57543;45.442;9.212;2023-03-23T03:24:18;7.80;;;3.85;;
70169;SDS011;57543;45.442;9.212;2023-03-23T03:27:27;6.53;;;3.72;;
70169;SDS011;57543;45.442;9.212;2023-03-23T03:30:43;5.90;;;3.40;;
70169;SDS011;57543;45.442;9.212;2023-03-23T03:33:50;7.43;;;3.60;;
70169;SDS011;57543;45.442;9.212;2023-03-23T03:36:54;5.78;;;3.25;;
70169;SDS011;57543;45.442;9.212;2023-03-23T03:40:07;6.57;;;3.70;;
70169;SDS011;57543;45.442;9.212;2023-03-23T03:43:16;6.13;;;3.40;;
70169;SDS011;57543;45.442;9.212;2023-03-23T03:46:20;7.15;;;3.47;;
70169;SDS011;57543;45.442;9.212;2023-03-23T03:49:24;6.73;;;3.33;;
70169;SDS011;57543;45.442;9.212;2023-03-23T03:52:31;7.78;;;3.45;;
70169;SDS011;57543;45.442;9.212;2023-03-23T03:55:35;6.93;;;3.50;;
70169;SDS011;57543;45.442;9.212;2023-03-23T03:58:43;5.47;;;3.50;;
70169;SDS011;57543;45.442;9.212;2023-03-23T04:01:55;6.25;;;3.47;;
70169;SDS011;57543;45.442;9.212;2023-03-23T04:04:59;5.60;;;3.30;;
70169;SDS011;57543;45.442;9.212;2023-03-23T04:08:07;5.63;;;3.28;;
70169;SDS011;57543;45.442;9.212;2023-03-23T04:11:10;5.65;;;3.58;;
70169;SDS011;57543;45.442;9.212;2023-03-23T04:14:15;5.90;;;3.70;;
70169;SDS011;57543;45.442;9.212;2023-03-23T04:17:21;5.93;;;3.58;;
70169;SDS011;57543;45.442;9.212;2023-03-23T04:20:25;6.10;;;3.50;;
70169;SDS011;57543;45.442;9.212;2023-03-23T04:23:31;6.93;;;3.60;;
70169;SDS011;57543;45.442;9.212;2023-03-23T04:26:39;6.35;;;3.60;;
70169;SDS011;57543;45.442;9.212;2023-03-23T04:29:56;6.13;;;3.80;;
70169;SDS011;57543;45.442;9.212;2023-03-23T04:33:28;7.15;;;3.50;;
70169;SDS011;57543;45.442;9.212;2023-03-23T04:36:33;5.13;;;3.50;;
70169;SDS011;57543;45.442;9.212;2023-03-23T04:39:40;6.78;;;3.47;;
70169;SDS011;57543;45.442;9.212;2023-03-23T04:42:48;6.28;;;3.63;;
70169;SDS011;57543;45.442;9.212;2023-03-23T04:46:11;5.47;;;3.40;;
70169;SDS011;57543;45.442;9.212;2023-03-23T04:49:15;7.55;;;3.78;;
70169;SDS011;57543;45.442;9.212;2023-03-23T04:52:24;5.33;;;3.57;;
70169;SDS011;57543;45.442;9.212;2023-03-23T04:55:33;4.82;;;3.30;;
70169;SDS011;57543;45.442;9.212;2023-03-23T04:58:45;6.03;;;3.72;;
70169;SDS011;57543;45.442;9.212;2023-03-23T05:02:11;8.43;;;4.00;;
70169;SDS011;57543;45.442;9.212;2023-03-23T05:05:17;7.05;;;3.47;;
70169;SDS011;57543;45.442;9.212;2023-03-23T05:08:22;7.13;;;3.60;;
70169;SDS011;57543;45.442;9.212;2023-03-23T05:11:30;6.57;;;4.10;;
70169;SDS011;57543;45.442;9.212;2023-03-23T05:14:34;7.35;;;3.70;;
70169;SDS011;57543;45.442;9.212;2023-03-23T05:17:44;7.78;;;4.13;;
70169;SDS011;57543;45.442;9.212;2023-03-23T05:20:53;6.70;;;3.67;;
70169;SDS011;57543;45.442;9.212;2023-03-23T05:23:59;8.90;;;4.43;;
70169;SDS011;57543;45.442;9.212;2023-03-23T05:27:04;7.10;;;4.03;;
70169;SDS011;57543;45.442;9.212;2023-03-23T05:30:12;6.63;;;3.65;;
70169;SDS011;57543;45.442;9.212;2023-03-23T05:33:19;8.27;;;4.18;;
70169;SDS011;57543;45.442;9.212;2023-03-23T05:36:30;7.05;;;3.83;;
70169;SDS011;57543;45.442;9.212;2023-03-23T05:39:50;7.00;;;3.90;;
70169;SDS011;57543;45.442;9.212;2023-03-23T05:43:20;6.60;;;4.03;;
70169;SDS011;57543;45.442;9.212;2023-03-23T05:46:40;7.35;;;3.50;;
70169;SDS011;57543;45.442;9.212;2023-03-23T05:49:44;6.90;;;4.10;;
70169;SDS011;57543;45.442;9.212;2023-03-23T05:52:52;6.53;;;3.88;;
70169;SDS011;57543;45.442;9.212;2023-03-23T05:55:58;7.30;;;3.70;;
70169;SDS011;57543;45.442;9.212;2023-03-23T05:59:27;6.22;;;4.03;;
70169;SDS011;57543;45.442;9.212;2023-03-23T06:02:33;9.05;;;4.07;;
70169;SDS011;57543;45.442;9.212;2023-03-23T06:05:42;7.82;;;3.80;;
70169;SDS011;57543;45.442;9.212;2023-03-23T06:08:47;9.05;;;4.20;;
70169;SDS011;57543;45.442;9.212;2023-03-23T06:11:53;6.93;;;4.17;;
70169;SDS011;57543;45.442;9.212;2023-03-23T06:15:20;6.72;;;3.78;;
70169;SDS011;57543;45.442;9.212;2023-03-23T06:18:50;7.63;;;4.22;;
70169;SDS011;57543;45.442;9.212;2023-03-23T06:22:00;5.90;;;3.95;;
70169;SDS011;57543;45.442;9.212;2023-03-23T06:25:20;7.82;;;4.20;;
70169;SDS011;57543;45.442;9.212;2023-03-23T06:28:25;9.37;;;4.27;;
70169;SDS011;57543;45.442;9.212;2023-03-23T06:31:30;6.60;;;4.07;;
70169;SDS011;57543;45.442;9.212;2023-03-23T06:34:37;9.70;;;4.50;;
70169;SDS011;57543;45.442;9.212;2023-03-23T06:38:09;5.97;;;3.63;;
70169;SDS011;57543;45.442;9.212;2023-03-23T06:41:33;7.63;;;4.80;;
70169;SDS011;57543;45.442;9.212;2023-03-23T06:44:37;9.17;;;4.40;;
70169;SDS011;57543;45.442;9.212;2023-03-23T06:47:41;6.82;;;4.50;;
70169;SDS011;57543;45.442;9.212;2023-03-23T06:50:46;6.22;;;4.50;;
70169;SDS011;57543;45.442;9.212;2023-03-23T06:53:52;6.97;;;4.13;;
70169;SDS011;57543;45.442;9.212;2023-03-23T06:56:57;7.65;;;5.13;;
70169;SDS011;57543;45.442;9.212;2023-03-23T07:00:00;6.27;;;4.27;;
70169;SDS011;57543;45.442;9.212;2023-03-23T07:03:08;7.45;;;4.32;;
70169;SDS011;57543;45.442;9.212;2023-03-23T07:06:14;8.55;;;4.13;;
70169;SDS011;57543;45.442;9.212;2023-03-23T07:09:25;8.57;;;3.50;;
70169;SDS011;57543;45.442;9.212;2023-03-23T07:12:30;7.38;;;3.65;;
70169;SDS011;57543;45.442;9.212;2023-03-23T07:15:34;7.17;;;4.47;;
70169;SDS011;57543;45.442;9.212;2023-03-23T07:18:38;6.22;;;3.60;;
70169;SDS011;57543;45.442;9.212;2023-03-23T07:21:43;6.72;;;3.88;;
70169;SDS011;57543;45.442;9.212;2023-03-23T07:24:46;6.80;;;4.05;;
70169;SDS011;57543;45.442;9.212;2023-03-23T07:28:09;6.35;;;3.67;;
70169;SDS011;57543;45.442;9.212;2023-03-23T07:31:13;8.13;;;3.77;;
70169;SDS011;57543;45.442;9.212;2023-03-23T07:34:17;9.18;;;4.50;;
70169;SDS011;57543;45.442;9.212;2023-03-23T07:37:35;7.25;;;3.42;;
70169;SDS011;57543;45.442;9.212;2023-03-23T07:40:39;5.03;;;3.25;;
70169;SDS011;57543;45.442;9.212;2023-03-23T07:43:52;6.57;;;3.20;;
70169;SDS011;57543;45.442;9.212;2023-03-23T07:47:11;6.57;;;3.40;;
70169;SDS011;57543;45.442;9.212;2023-03-23T07:50:15;6.85;;;3.78;;
70169;SDS011;57543;45.442;9.212;2023-03-23T07:53:23;6.50;;;4.20;;
70169;SDS011;57543;45.442;9.212;2023-03-23T07:56:35;7.60;;;3.70;;
70169;SDS011;57543;45.442;9.212;2023-03-23T08:00:02;8.07;;;3.80;;
70169;SDS011;57543;45.442;9.212;2023-03-23T08:03:22;7.10;;;4.10;;
70169;SDS011;57543;45.442;9.212;2023-03-23T08:06:37;7.32;;;4.28;;
70169;SDS011;57543;45.442;9.212;2023-03-23T08:10:15;9.48;;;4.30;;
70169;SDS011;57543;45.442;9.212;2023-03-23T08:13:59;6.60;;;3.97;;
70169;SDS011;57543;45.442;9.212;2023-03-23T08:17:21;8.25;;;4.13;;
70169;SDS011;57543;45.442;9.212;2023-03-23T08:20:43;8.23;;;4.10;;
70169;SDS011;57543;45.442;9.212;2023-03-23T08:24:08;7.70;;;3.85;;
70169;SDS011;57543;45.442;9.212;2023-03-23T08:27:24;7.15;;;3.90;;
70169;SDS011;57543;45.442;9.212;2023-03-23T08:30:53;8.23;;;3.63;;
70169;SDS011;57543;45.442;9.212;2023-03-23T08:34:18;10.40;;;4.10;;
70169;SDS011;57543;45.442;9.212;2023-03-23T08:37:34;8.00;;;4.30;;
70169;SDS011;57543;45.442;9.212;2023-03-23T08:40:58;8.55;;;4.10;;
70169;SDS011;57543;45.442;9.212;2023-03-23T08:44:21;7.90;;;4.50;;
70169;SDS011;57543;45.442;9.212;2023-03-23T08:47:45;6.88;;;4.43;;
70169;SDS011;57543;45.442;9.212;2023-03-23T08:51:18;9.38;;;4.68;;
70169;SDS011;57543;45.442;9.212;2023-03-23T08:54:21;7.90;;;4.80;;
70169;SDS011;57543;45.442;9.212;2023-03-23T08:57:28;7.85;;;4.60;;
70169;SDS011;57543;45.442;9.212;2023-03-23T09:00:45;8.63;;;5.00;;
70169;SDS011;57543;45.442;9.212;2023-03-23T09:04:02;7.47;;;4.13;;
70169;SDS011;57543;45.442;9.212;2023-03-23T09:07:38;6.50;;;4.13;;
70169;SDS011;57543;45.442;9.212;2023-03-23T09:10:42;10.67;;;3.50;;
70169;SDS011;57543;45.442;9.212;2023-03-23T09:13:45;7.85;;;4.03;;
70169;SDS011;57543;45.442;9.212;2023-03-23T09:16:50;9.85;;;4.30;;
70169;SDS011;57543;45.442;9.212;2023-03-23T09:19:53;8.63;;;4.18;;
70169;SDS011;57543;45.442;9.212;2023-03-23T09:22:57;6.70;;;4.43;;
70169;SDS011;57543;45.442;9.212;2023-03-23T09:26:02;10.47;;;4.70;;
70169;SDS011;57543;45.442;9.212;2023-03-23T09:29:06;8.27;;;4.30;;
70169;SDS011;57543;45.442;9.212;2023-03-23T09:32:10;6.22;;;4.00;;
70169;SDS011;57543;45.442;9.212;2023-03-23T09:35:16;9.23;;;4.50;;
70169;SDS011;57543;45.442;9.212;2023-03-23T09:38:20;7.38;;;4.05;;
70169;SDS011;57543;45.442;9.212;2023-03-23T09:48:05;7.30;;;4.18;;
70169;SDS011;57543;45.442;9.212;2023-03-23T09:54:47;7.70;;;3.85;;
70169;SDS011;57543;45.442;9.212;2023-03-23T10:01:37;8.25;;;4.45;;
70169;SDS011;57543;45.442;9.212;2023-03-23T10:04:45;7.80;;;4.10;;
70169;SDS011;57543;45.442;9.212;2023-03-23T10:07:51;7.20;;;4.10;;
70169;SDS011;57543;45.442;9.212;2023-03-23T10:11:10;13.55;;;4.60;;
70169;SDS011;57543;45.442;9.212;2023-03-23T10:14:24;9.13;;;4.50;;
70169;SDS011;57543;45.442;9.212;2023-03-23T10:17:37;8.35;;;4.50;;
70169;SDS011;57543;45.442;9.212;2023-03-23T10:20:50;8.90;;;4.60;;
70169;SDS011;57543;45.442;9.212;2023-03-23T10:23:58;9.38;;;4.82;;
70169;SDS011;57543;45.442;9.212;2023-03-23T10:30:36;7.93;;;4.20;;
70169;SDS011;57543;45.442;9.212;2023-03-23T10:33:45;8.40;;;5.07;;
70169;SDS011;57543;45.442;9.212;2023-03-23T10:40:43;8.70;;;4.65;;
70169;SDS011;57543;45.442;9.212;2023-03-23T10:43:52;9.43;;;6.00;;
70169;SDS011;57543;45.442;9.212;2023-03-23T10:47:02;9.27;;;5.03;;
70169;SDS011;57543;45.442;9.212;2023-03-23T10:50:11;9.68;;;5.10;;
70169;SDS011;57543;45.442;9.212;2023-03-23T10:53:26;11.02;;;5.90;;
70169;SDS011;57543;45.442;9.212;2023-03-23T10:56:37;9.57;;;5.70;;
70169;SDS011;57543;45.442;9.212;2023-03-23T10:59:42;8.85;;;4.32;;
70169;SDS011;57543;45.442;9.212;2023-03-23T11:03:05;9.40;;;5.40;;
70169;SDS011;57543;45.442;9.212;2023-03-23T11:06:29;11.30;;;6.43;;
70169;SDS011;57543;45.442;9.212;2023-03-23T11:09:38;11.23;;;5.75;;
70169;SDS011;57543;45.442;9.212;2023-03-23T11:12:58;11.60;;;5.97;;
70169;SDS011;57543;45.442;9.212;2023-03-23T11:16:02;8.80;;;5.78;;
70169;SDS011;57543;45.442;9.212;2023-03-23T11:19:13;9.27;;;6.00;;
70169;SDS011;57543;45.442;9.212;2023-03-23T11:22:28;10.40;;;5.90;;
70169;SDS011;57543;45.442;9.212;2023-03-23T11:25:48;8.80;;;4.78;;
70169;SDS011;57543;45.442;9.212;2023-03-23T11:32:18;11.88;;;6.38;;
70169;SDS011;57543;45.442;9.212;2023-03-23T11:35:25;9.03;;;6.00;;
70169;SDS011;57543;45.442;9.212;2023-03-23T11:38:31;10.80;;;6.70;;
70169;SDS011;57543;45.442;9.212;2023-03-23T11:41:37;11.55;;;7.25;;
70169;SDS011;57543;45.442;9.212;2023-03-23T11:44:42;10.77;;;6.72;;
70169;SDS011;57543;45.442;9.212;2023-03-23T11:47:52;11.48;;;6.10;;
70169;SDS011;57543;45.442;9.212;2023-03-23T11:54:20;12.35;;;7.82;;
70169;SDS011;57543;45.442;9.212;2023-03-23T11:57:35;11.93;;;6.68;;
70169;SDS011;57543;45.442;9.212;2023-03-23T12:00:42;10.73;;;6.30;;
70169;SDS011;57543;45.442;9.212;2023-03-23T12:07:21;14.60;;;7.87;;
70169;SDS011;57543;45.442;9.212;2023-03-23T12:14:07;11.25;;;7.13;;
70169;SDS011;57543;45.442;9.212;2023-03-23T12:20:31;12.70;;;7.15;;
70169;SDS011;57543;45.442;9.212;2023-03-23T12:23:49;13.20;;;8.07;;
70169;SDS011;57543;45.442;9.212;2023-03-23T12:33:54;12.35;;;7.13;;
70169;SDS011;57543;45.442;9.212;2023-03-23T12:38:10;11.15;;;7.45;;
70169;SDS011;57543;45.442;9.212;2023-03-23T12:40:47;12.37;;;8.37;;
70169;SDS011;57543;45.442;9.212;2023-03-23T12:44:07;10.30;;;6.43;;
70169;SDS011;57543;45.442;9.212;2023-03-23T12:47:17;10.35;;;7.07;;
70169;SDS011;57543;45.442;9.212;2023-03-23T12:50:34;11.35;;;6.40;;
70169;SDS011;57543;45.442;9.212;2023-03-23T12:54:01;12.32;;;6.63;;
70169;SDS011;57543;45.442;9.212;2023-03-23T12:57:20;10.10;;;6.30;;
70169;SDS011;57543;45.442;9.212;2023-03-23T13:00:34;10.75;;;5.80;;
70169;SDS011;57543;45.442;9.212;2023-03-23T13:03:51;8.68;;;5.60;;
70169;SDS011;57543;45.442;9.212;2023-03-23T13:07:05;9.55;;;6.22;;
70169;SDS011;57543;45.442;9.212;2023-03-23T13:10:23;11.23;;;6.22;;
70169;SDS011;57543;45.442;9.212;2023-03-23T13:13:41;10.53;;;6.07;;
70169;SDS011;57543;45.442;9.212;2023-03-23T13:16:53;8.10;;;5.68;;
70169;SDS011;57543;45.442;9.212;2023-03-23T13:23:47;10.50;;;5.90;;
70169;SDS011;57543;45.442;9.212;2023-03-23T13:26:53;9.65;;;6.30;;
70169;SDS011;57543;45.442;9.212;2023-03-23T13:30:01;8.47;;;5.90;;
70169;SDS011;57543;45.442;9.212;2023-03-23T13:33:11;11.32;;;5.65;;
70169;SDS011;57543;45.442;9.212;2023-03-23T13:36:16;7.68;;;4.95;;
70169;SDS011;57543;45.442;9.212;2023-03-23T13:39:29;10.65;;;6.25;;
70169;SDS011;57543;45.442;9.212;2023-03-23T13:42:33;7.47;;;5.20;;
70169;SDS011;57543;45.442;9.212;2023-03-23T13:45:43;8.87;;;6.20;;
70169;SDS011;57543;45.442;9.212;2023-03-23T13:49:44;10.10;;;5.68;;
70169;SDS011;57543;45.442;9.212;2023-03-23T13:52:35;10.20;;;6.07;;
70169;SDS011;57543;45.442;9.212;2023-03-23T13:55:51;9.60;;;4.82;;
70169;SDS011;57543;45.442;9.212;2023-03-23T13:59:07;10.75;;;6.45;;
70169;SDS011;57543;45.442;9.212;2023-03-23T14:02:37;10.30;;;5.33;;
70169;SDS011;57543;45.442;9.212;2023-03-23T14:05:48;8.60;;;4.95;;
70169;SDS011;57543;45.442;9.212;2023-03-23T14:08:53;8.35;;;5.00;;
70169;SDS011;57543;45.442;9.212;2023-03-23T14:12:02;9.77;;;5.75;;
70169;SDS011;57543;45.442;9.212;2023-03-23T14:15:12;9.35;;;5.45;;
70169;SDS011;57543;45.442;9.212;2023-03-23T14:18:17;8.03;;;4.57;;
70169;SDS011;57543;45.442;9.212;2023-03-23T14:21:32;11.48;;;6.22;;
70169;SDS011;57543;45.442;9.212;2023-03-23T14:24:39;10.07;;;6.68;;
70169;SDS011;57543;45.442;9.212;2023-03-23T14:27:44;11.68;;;6.80;;
70169;SDS011;57543;45.442;9.212;2023-03-23T14:30:54;11.40;;;6.65;;
70169;SDS011;57543;45.442;9.212;2023-03-23T14:34:04;11.00;;;5.00;;
70169;SDS011;57543;45.442;9.212;2023-03-23T14:37:15;8.93;;;4.93;;
70169;SDS011;57543;45.442;9.212;2023-03-23T14:40:20;10.63;;;5.45;;
70169;SDS011;57543;45.442;9.212;2023-03-23T14:43:24;8.88;;;5.40;;
70169;SDS011;57543;45.442;9.212;2023-03-23T14:46:29;9.32;;;5.35;;
70169;SDS011;57543;45.442;9.212;2023-03-23T14:49:36;9.27;;;5.83;;
70169;SDS011;57543;45.442;9.212;2023-03-23T14:52:42;6.70;;;4.57;;
70169;SDS011;57543;45.442;9.212;2023-03-23T14:55:49;8.93;;;4.60;;
70169;SDS011;57543;45.442;9.212;2023-03-23T14:58:54;11.45;;;5.53;;
70169;SDS011;57543;45.442;9.212;2023-03-23T15:02:09;9.13;;;5.80;;
70169;SDS011;57543;45.442;9.212;2023-03-23T15:08:30;8.65;;;4.60;;
70169;SDS011;57543;45.442;9.212;2023-03-23T15:11:38;9.93;;;5.22;;
70169;SDS011;57543;45.442;9.212;2023-03-23T15:14:44;10.07;;;5.38;;
70169;SDS011;57543;45.442;9.212;2023-03-23T15:17:50;8.35;;;4.60;;
70169;SDS011;57543;45.442;9.212;2023-03-23T15:20:54;10.37;;;5.63;;
70169;SDS011;57543;45.442;9.212;2023-03-23T15:23:58;8.90;;;5.22;;
70169;SDS011;57543;45.442;9.212;2023-03-23T15:27:15;9.80;;;6.07;;
70169;SDS011;57543;45.442;9.212;2023-03-23T15:30:37;8.70;;;5.55;;
70169;SDS011;57543;45.442;9.212;2023-03-23T15:33:54;12.48;;;6.30;;
70169;SDS011;57543;45.442;9.212;2023-03-23T15:37:01;11.47;;;5.37;;
70169;SDS011;57543;45.442;9.212;2023-03-23T15:40:13;12.48;;;4.90;;
70169;SDS011;57543;45.442;9.212;2023-03-23T15:43:20;10.25;;;6.00;;
70169;SDS011;57543;45.442;9.212;2023-03-23T15:46:52;8.43;;;4.80;;
70169;SDS011;57543;45.442;9.212;2023-03-23T15:49:58;9.38;;;5.95;;
70169;SDS011;57543;45.442;9.212;2023-03-23T15:53:48;10.03;;;4.90;;
70169;SDS011;57543;45.442;9.212;2023-03-23T15:56:37;7.78;;;4.85;;
70169;SDS011;57543;45.442;9.212;2023-03-23T15:59:41;7.93;;;4.85;;
70169;SDS011;57543;45.442;9.212;2023-03-23T16:02:45;9.73;;;5.10;;
70169;SDS011;57543;45.442;9.212;2023-03-23T16:05:51;9.13;;;4.80;;
70169;SDS011;57543;45.442;9.212;2023-03-23T16:08:55;8.37;;;4.70;;
70169;SDS011;57543;45.442;9.212;2023-03-23T16:11:59;10.10;;;5.15;;
70169;SDS011;57543;45.442;9.212;2023-03-23T16:15:03;10.57;;;5.03;;
70169;SDS011;57543;45.442;9.212;2023-03-23T16:18:09;9.07;;;5.50;;
70169;SDS011;57543;45.442;9.212;2023-03-23T16:21:20;10.90;;;5.60;;
70169;SDS011;57543;45.442;9.212;2023-03-23T16:24:24;8.70;;;6.00;;
70169;SDS011;57543;45.442;9.212;2023-03-23T16:27:29;10.90;;;5.47;;
70169;SDS011;57543;45.442;9.212;2023-03-23T16:30:33;9.75;;;5.45;;
70169;SDS011;57543;45.442;9.212;2023-03-23T16:33:38;10.68;;;5.38;;
70169;SDS011;57543;45.442;9.212;2023-03-23T16:36:42;9.05;;;5.03;;
70169;SDS011;57543;45.442;9.212;2023-03-23T16:39:46;10.63;;;5.40;;
70169;SDS011;57543;45.442;9.212;2023-03-23T16:42:49;7.80;;;5.03;;
70169;SDS011;57543;45.442;9.212;2023-03-23T16:45:54;9.23;;;5.70;;
70169;SDS011;57543;45.442;9.212;2023-03-23T16:48:58;9.23;;;5.38;;
70169;SDS011;57543;45.442;9.212;2023-03-23T16:52:02;12.23;;;6.63;;
70169;SDS011;57543;45.442;9.212;2023-03-23T16:55:06;7.87;;;4.90;;
70169;SDS011;57543;45.442;9.212;2023-03-23T16:58:10;9.13;;;5.55;;
70169;SDS011;57543;45.442;9.212;2023-03-23T17:01:14;11.50;;;5.35;;
70169;SDS011;57543;45.442;9.212;2023-03-23T17:04:18;10.10;;;5.30;;
70169;SDS011;57543;45.442;9.212;2023-03-23T17:07:22;9.23;;;4.97;;
70169;SDS011;57543;45.442;9.212;2023-03-23T17:10:27;7.93;;;4.47;;
70169;SDS011;57543;45.442;9.212;2023-03-23T17:13:31;8.48;;;4.40;;
70169;SDS011;57543;45.442;9.212;2023-03-23T17:16:35;9.70;;;5.25;;
70169;SDS011;57543;45.442;9.212;2023-03-23T17:19:39;8.07;;;4.68;;
70169;SDS011;57543;45.442;9.212;2023-03-23T17:22:43;7.40;;;4.63;;
70169;SDS011;57543;45.442;9.212;2023-03-23T17:25:47;9.27;;;4.90;;
70169;SDS011;57543;45.442;9.212;2023-03-23T17:28:50;8.10;;;4.72;;
70169;SDS011;57543;45.442;9.212;2023-03-23T17:31:54;6.65;;;3.90;;
70169;SDS011;57543;45.442;9.212;2023-03-23T17:34:58;7.25;;;4.55;;
70169;SDS011;57543;45.442;9.212;2023-03-23T17:38:01;7.20;;;3.83;;
70169;SDS011;57543;45.442;9.212;2023-03-23T17:41:05;9.90;;;4.30;;
70169;SDS011;57543;45.442;9.212;2023-03-23T17:44:10;7.22;;;3.78;;
70169;SDS011;57543;45.442;9.212;2023-03-23T17:47:14;6.68;;;3.72;;
70169;SDS011;57543;45.442;9.212;2023-03-23T17:50:17;7.03;;;3.70;;
70169;SDS011;57543;45.442;9.212;2023-03-23T17:53:21;6.13;;;3.40;;
70169;SDS011;57543;45.442;9.212;2023-03-23T17:56:26;6.03;;;3.07;;
70169;SDS011;57543;45.442;9.212;2023-03-23T17:59:30;7.90;;;3.67;;
70169;SDS011;57543;45.442;9.212;2023-03-23T18:02:35;6.65;;;3.20;;
70169;SDS011;57543;45.442;9.212;2023-03-23T18:05:39;7.25;;;3.60;;
70169;SDS011;57543;45.442;9.212;2023-03-23T18:08:44;7.97;;;3.58;;
70169;SDS011;57543;45.442;9.212;2023-03-23T18:11:48;7.30;;;4.10;;
70169;SDS011;57543;45.442;9.212;2023-03-23T18:14:57;7.32;;;4.10;;
70169;SDS011;57543;45.442;9.212;2023-03-23T18:18:02;5.75;;;3.28;;
70169;SDS011;57543;45.442;9.212;2023-03-23T18:21:08;7.68;;;3.60;;
70169;SDS011;57543;45.442;9.212;2023-03-23T18:24:12;5.88;;;3.35;;
70169;SDS011;57543;45.442;9.212;2023-03-23T18:27:16;6.37;;;3.80;;
70169;SDS011;57543;45.442;9.212;2023-03-23T18:30:20;6.63;;;3.63;;
70169;SDS011;57543;45.442;9.212;2023-03-23T18:33:23;7.53;;;4.00;;
70169;SDS011;57543;45.442;9.212;2023-03-23T18:36:28;8.00;;;4.18;;
70169;SDS011;57543;45.442;9.212;2023-03-23T18:39:32;8.90;;;4.15;;
70169;SDS011;57543;45.442;9.212;2023-03-23T18:42:40;6.57;;;3.57;;
70169;SDS011;57543;45.442;9.212;2023-03-23T18:45:50;7.65;;;4.20;;
70169;SDS011;57543;45.442;9.212;2023-03-23T18:48:56;8.00;;;3.97;;
70169;SDS011;57543;45.442;9.212;2023-03-23T18:52:00;6.03;;;3.47;;
70169;SDS011;57543;45.442;9.212;2023-03-23T18:55:04;7.47;;;4.28;;
70169;SDS011;57543;45.442;9.212;2023-03-23T18:58:08;5.83;;;3.90;;
70169;SDS011;57543;45.442;9.212;2023-03-23T19:01:13;7.40;;;3.70;;
70169;SDS011;57543;45.442;9.212;2023-03-23T19:04:19;7.25;;;3.97;;
70169;SDS011;57543;45.442;9.212;2023-03-23T19:07:24;6.78;;;4.00;;
70169;SDS011;57543;45.442;9.212;2023-03-23T19:10:28;6.93;;;3.75;;
70169;SDS011;57543;45.442;9.212;2023-03-23T19:13:33;8.27;;;4.00;;
70169;SDS011;57543;45.442;9.212;2023-03-23T19:16:38;7.88;;;3.95;;
70169;SDS011;57543;45.442;9.212;2023-03-23T19:19:43;7.57;;;4.10;;
70169;SDS011;57543;45.442;9.212;2023-03-23T19:22:47;7.80;;;4.43;;
70169;SDS011;57543;45.442;9.212;2023-03-23T19:25:51;6.05;;;3.88;;
70169;SDS011;57543;45.442;9.212;2023-03-23T19:28:56;7.87;;;4.30;;
70169;SDS011;57543;45.442;9.212;2023-03-23T19:32:00;10.75;;;4.05;;
70169;SDS011;57543;45.442;9.212;2023-03-23T19:35:05;8.18;;;3.80;;
70169;SDS011;57543;45.442;9.212;2023-03-23T19:38:09;8.60;;;4.00;;
70169;SDS011;57543;45.442;9.212;2023-03-23T19:41:13;8.60;;;4.05;;
70169;SDS011;57543;45.442;9.212;2023-03-23T19:44:17;7.27;;;3.80;;
70169;SDS011;57543;45.442;9.212;2023-03-23T19:47:21;7.90;;;4.43;;
70169;SDS011;57543;45.442;9.212;2023-03-23T19:50:25;7.13;;;4.05;;
70169;SDS011;57543;45.442;9.212;2023-03-23T19:53:28;8.77;;;4.40;;
70169;SDS011;57543;45.442;9.212;2023-03-23T19:56:32;8.93;;;4.72;;
70169;SDS011;57543;45.442;9.212;2023-03-23T19:59:37;8.40;;;4.07;;
70169;SDS011;57543;45.442;9.212;2023-03-23T20:02:41;12.00;;;5.20;;
70169;SDS011;57543;45.442;9.212;2023-03-23T20:05:44;9.15;;;4.85;;
70169;SDS011;57543;45.442;9.212;2023-03-23T20:08:48;7.40;;;4.78;;
70169;SDS011;57543;45.442;9.212;2023-03-23T20:11:52;8.63;;;5.20;;
70169;SDS011;57543;45.442;9.212;2023-03-23T20:14:56;9.27;;;4.97;;
70169;SDS011;57543;45.442;9.212;2023-03-23T20:18:01;8.73;;;5.15;;